createdAt,value
2023-04-30T00:01:41.519Z,10.57
2023-04-30T00:04:50.361Z,10.65
2023-04-30T00:07:59.300Z,10.70
2023-04-30T00:11:08.157Z,10.59
2023-04-30T00:14:18.168Z,10.61
2023-04-30T00:17:26.891Z,10.58
2023-04-30T00:20:36.154Z,10.67
2023-04-30T00:23:44.897Z,10.53
2023-04-30T00:26:53.465Z,10.52
2023-04-30T00:30:03.470Z,10.59
2023-04-30T00:33:12.127Z,10.50
2023-04-30T00:36:21.191Z,10.49
2023-04-30T00:39:30.132Z,10.38
2023-04-30T00:42:38.642Z,10.36
2023-04-30T00:45:49.226Z,10.42
2023-04-30T00:48:57.872Z,10.31
2023-04-30T00:52:07.119Z,10.07
2023-04-30T00:55:16.298Z,10.02
2023-04-30T00:58:24.912Z,9.95
2023-04-30T01:01:35.002Z,9.97
2023-04-30T01:04:43.597Z,10.01
2023-04-30T01:07:52.566Z,9.90
2023-04-30T01:11:11.336Z,9.87
2023-04-30T01:14:27.146Z,9.87
2023-04-30T01:17:45.270Z,9.89
2023-04-30T01:20:59.450Z,10.00
2023-04-30T01:24:39.123Z,10.15
2023-04-30T01:28:06.230Z,10.03
2023-04-30T01:31:16.602Z,10.09
2023-04-30T01:34:25.182Z,9.98
2023-04-30T01:37:42.596Z,9.97
2023-04-30T01:40:58.899Z,9.86
2023-04-30T01:44:34.138Z,9.84
2023-04-30T01:47:49.873Z,9.89
2023-04-30T01:51:09.707Z,9.93
2023-04-30T01:54:27.663Z,10.00
2023-04-30T01:57:39.571Z,9.95
2023-04-30T02:00:49.336Z,9.99
2023-04-30T02:03:58.172Z,10.15
2023-04-30T02:07:07.119Z,10.04
2023-04-30T02:10:18.954Z,9.97
2023-04-30T02:13:27.624Z,9.89
2023-04-30T02:16:37.505Z,9.92
2023-04-30T02:19:46.463Z,9.98
2023-04-30T02:22:55.088Z,9.90
2023-04-30T02:26:03.834Z,9.84
2023-04-30T02:29:12.396Z,9.77
2023-04-30T02:32:24.703Z,9.78
2023-04-30T02:35:33.283Z,9.75
2023-04-30T02:38:41.820Z,9.71
2023-04-30T02:41:52.034Z,9.73
2023-04-30T02:45:00.601Z,9.67
2023-04-30T02:48:10.696Z,9.58
2023-04-30T02:51:22.260Z,9.76
2023-04-30T02:54:30.951Z,9.84
2023-04-30T02:57:39.406Z,9.72
2023-04-30T03:00:48.195Z,9.71
2023-04-30T03:03:58.483Z,9.60
2023-04-30T03:07:07.823Z,9.58
2023-04-30T03:10:19.014Z,9.67
2023-04-30T03:13:27.449Z,9.58
2023-04-30T03:16:36.641Z,9.54
2023-04-30T03:19:46.539Z,9.57
2023-04-30T03:22:54.999Z,9.46
2023-04-30T03:26:04.644Z,9.28
2023-04-30T03:29:13.244Z,9.14
2023-04-30T03:32:21.778Z,9.11
2023-04-30T03:35:31.624Z,9.15
2023-04-30T03:38:40.256Z,9.32
2023-04-30T03:41:48.929Z,9.26
2023-04-30T03:44:57.566Z,9.18
2023-04-30T03:48:06.520Z,9.22
2023-04-30T03:51:16.406Z,9.19
2023-04-30T03:54:24.967Z,9.31
2023-04-30T03:57:33.910Z,9.38
2023-04-30T04:00:42.721Z,9.32
2023-04-30T04:03:51.691Z,9.17
2023-04-30T04:07:03.069Z,9.10
2023-04-30T04:10:11.974Z,9.09
2023-04-30T04:13:20.477Z,9.16
2023-04-30T04:16:29.081Z,9.25
2023-04-30T04:19:37.661Z,9.24
2023-04-30T04:22:47.881Z,9.37
2023-04-30T04:25:57.436Z,9.42
2023-04-30T04:29:06.470Z,9.46
2023-04-30T04:32:14.965Z,9.45
2023-04-30T04:35:24.529Z,9.54
2023-04-30T04:38:34.417Z,9.64
2023-04-30T04:41:43.967Z,9.74
2023-04-30T04:44:52.712Z,9.65
2023-04-30T04:48:01.286Z,9.67
2023-04-30T04:51:10.432Z,9.75
2023-04-30T04:54:21.217Z,9.82
2023-04-30T04:57:31.442Z,9.89
2023-04-30T05:00:40.821Z,9.96
2023-04-30T05:03:50.386Z,10.04
2023-04-30T05:07:01.085Z,10.13
2023-04-30T05:10:11.724Z,10.08
2023-04-30T05:13:20.193Z,10.15
2023-04-30T05:16:28.819Z,10.17
2023-04-30T05:19:37.611Z,10.21
2023-04-30T05:22:46.194Z,10.27
2023-04-30T05:25:57.194Z,10.33
2023-04-30T05:29:05.743Z,10.20
2023-04-30T05:32:14.327Z,10.31
2023-04-30T05:35:22.895Z,10.41
2023-04-30T05:38:31.414Z,10.58
2023-04-30T05:41:43.157Z,10.71
2023-04-30T05:44:52.539Z,10.96
2023-04-30T05:48:01.964Z,11.33
2023-04-30T05:51:10.940Z,11.72
2023-04-30T05:54:19.426Z,11.61
2023-04-30T05:57:30.379Z,11.45
2023-04-30T06:00:39.504Z,11.88
2023-04-30T06:03:48.217Z,11.65
2023-04-30T06:07:04.692Z,11.92
2023-04-30T06:10:13.593Z,12.55
2023-04-30T06:13:22.264Z,12.87
2023-04-30T06:16:30.883Z,14.06
2023-04-30T06:19:39.484Z,15.86
2023-04-30T06:22:49.470Z,17.46
2023-04-30T06:25:58.110Z,18.28
2023-04-30T06:29:06.700Z,16.63
2023-04-30T06:32:15.198Z,16.20
2023-04-30T06:35:24.668Z,16.75
2023-04-30T06:38:34.452Z,16.45
2023-04-30T06:41:43.373Z,14.88
2023-04-30T06:44:52.579Z,15.13
2023-04-30T06:48:01.366Z,17.01
2023-04-30T06:51:10.943Z,16.21
2023-04-30T06:54:22.819Z,16.16
2023-04-30T06:57:31.892Z,16.80
2023-04-30T07:00:40.451Z,16.98
2023-04-30T07:03:49.163Z,18.73
2023-04-30T07:06:57.901Z,18.24
2023-04-30T07:10:08.746Z,16.50
2023-04-30T07:13:17.597Z,16.11
2023-04-30T07:16:27.862Z,14.84
2023-04-30T07:19:36.587Z,16.59
2023-04-30T07:22:46.168Z,16.81
2023-04-30T07:25:56.602Z,16.11
2023-04-30T07:29:05.338Z,15.75
2023-04-30T07:32:14.515Z,15.82
2023-04-30T07:35:23.074Z,15.58
2023-04-30T07:38:31.580Z,15.62
2023-04-30T07:41:41.568Z,15.81
2023-04-30T07:44:50.017Z,15.92
2023-04-30T07:47:58.849Z,14.94
2023-04-30T07:51:07.558Z,14.82
2023-04-30T07:54:16.204Z,14.83
2023-04-30T07:57:27.033Z,16.70
2023-04-30T08:00:35.494Z,17.81
2023-04-30T08:03:44.205Z,16.57
2023-04-30T08:06:57.936Z,15.01
2023-04-30T08:10:07.591Z,16.76
2023-04-30T08:13:17.665Z,17.88
2023-04-30T08:16:26.266Z,19.40
2023-04-30T08:19:34.968Z,20.73
2023-04-30T08:22:43.558Z,21.07
2023-04-30T08:25:54.327Z,20.47
2023-04-30T08:29:04.740Z,17.70
2023-04-30T08:32:13.451Z,17.20
2023-04-30T08:35:22.343Z,18.27
2023-04-30T08:38:30.911Z,18.66
2023-04-30T08:41:43.365Z,19.64
2023-04-30T08:44:53.417Z,21.01
2023-04-30T08:48:02.743Z,21.20
2023-04-30T08:51:11.518Z,20.37
2023-04-30T08:54:21.022Z,19.33
2023-04-30T08:57:29.506Z,18.74
2023-04-30T09:00:40.531Z,18.05
2023-04-30T09:03:49.361Z,17.78
2023-04-30T09:06:59.289Z,17.31
2023-04-30T09:10:17.841Z,17.28
2023-04-30T09:13:26.479Z,16.66
2023-04-30T09:16:48.954Z,17.12
2023-04-30T09:20:08.088Z,18.05
2023-04-30T09:23:16.596Z,17.62
2023-04-30T09:26:31.697Z,17.33
2023-04-30T09:29:40.461Z,17.61
2023-04-30T09:32:57.985Z,16.71
2023-04-30T09:36:11.178Z,15.81
2023-04-30T09:39:19.748Z,16.16
2023-04-30T09:42:28.454Z,15.82
2023-04-30T09:45:44.696Z,15.68
2023-04-30T09:49:03.652Z,16.10
2023-04-30T09:52:12.681Z,16.60
2023-04-30T09:55:23.352Z,16.97
2023-04-30T09:58:37.356Z,16.60
2023-04-30T10:01:46.206Z,16.72
2023-04-30T10:04:59.175Z,16.77
2023-04-30T10:08:14.466Z,16.98
2023-04-30T10:11:24.660Z,16.91
2023-04-30T10:14:34.396Z,16.97
2023-04-30T10:17:48.641Z,17.21
2023-04-30T10:21:00.763Z,17.09
2023-04-30T10:24:18.272Z,17.22
2023-04-30T10:27:26.925Z,18.08
2023-04-30T10:30:37.279Z,17.60
2023-04-30T10:33:55.072Z,17.87
2023-04-30T10:37:12.512Z,17.73
2023-04-30T10:40:21.302Z,17.05
2023-04-30T10:43:33.091Z,18.39
2023-04-30T10:46:42.018Z,17.87
2023-04-30T10:49:51.936Z,17.52
2023-04-30T10:53:06.282Z,17.72
2023-04-30T10:56:14.783Z,17.44
2023-04-30T10:59:24.364Z,17.44
2023-04-30T11:02:41.358Z,17.52
2023-04-30T11:05:49.887Z,17.04
2023-04-30T11:09:05.916Z,16.92
2023-04-30T11:12:16.629Z,17.13
2023-04-30T11:15:27.555Z,16.61
2023-04-30T11:18:36.219Z,17.54
2023-04-30T11:22:17.921Z,16.69
2023-04-30T11:25:27.733Z,17.91
2023-04-30T11:28:37.737Z,18.25
2023-04-30T11:31:47.363Z,18.01
2023-04-30T11:34:56.706Z,17.65
2023-04-30T11:38:07.086Z,17.11
2023-04-30T11:41:17.185Z,16.66
2023-04-30T11:44:27.107Z,16.72
2023-04-30T11:47:42.787Z,16.51
2023-04-30T11:50:52.003Z,16.52
2023-04-30T11:54:00.765Z,16.53
2023-04-30T11:57:10.585Z,16.82
2023-04-30T12:00:21.211Z,17.32
2023-04-30T12:03:30.629Z,17.66
2023-04-30T12:06:39.227Z,18.11
2023-04-30T12:09:55.205Z,18.16
2023-04-30T12:13:05.728Z,18.15
2023-04-30T12:16:14.900Z,18.35
2023-04-30T12:19:25.210Z,18.45
2023-04-30T12:22:33.904Z,17.95
2023-04-30T12:25:43.978Z,17.95
2023-04-30T12:28:54.202Z,17.91
2023-04-30T12:32:02.749Z,17.89
2023-04-30T12:35:16.108Z,17.31
2023-04-30T12:38:24.612Z,17.46
2023-04-30T12:41:33.133Z,17.40
2023-04-30T12:44:46.419Z,17.01
2023-04-30T12:47:56.223Z,17.16
2023-04-30T12:51:05.169Z,17.78
2023-04-30T12:54:13.729Z,17.67
2023-04-30T12:57:22.616Z,17.61
2023-04-30T13:00:43.965Z,17.37
2023-04-30T13:03:53.658Z,16.99
2023-04-30T13:07:04.761Z,17.20
2023-04-30T13:10:14.380Z,16.86
2023-04-30T13:13:22.984Z,16.68
2023-04-30T13:16:33.724Z,16.42
2023-04-30T13:19:42.654Z,16.81
2023-04-30T13:22:51.444Z,16.99
2023-04-30T13:26:00.063Z,16.98
2023-04-30T13:29:08.697Z,17.54
2023-04-30T13:32:18.875Z,17.88
2023-04-30T13:35:28.020Z,18.25
2023-04-30T13:38:36.585Z,17.93
2023-04-30T13:41:45.359Z,17.30
2023-04-30T13:44:54.333Z,17.20
2023-04-30T13:48:04.769Z,17.09
2023-04-30T13:51:13.801Z,17.21
2023-04-30T13:54:23.219Z,17.28
2023-04-30T13:57:33.237Z,16.85
2023-04-30T14:00:42.110Z,16.59
2023-04-30T14:03:52.290Z,16.64
2023-04-30T14:07:02.399Z,16.95
2023-04-30T14:10:12.765Z,16.97
2023-04-30T14:13:21.794Z,16.99
2023-04-30T14:16:31.110Z,17.22
2023-04-30T14:19:41.556Z,17.21
2023-04-30T14:22:50.608Z,17.10
2023-04-30T14:26:00.190Z,17.08
2023-04-30T14:29:09.395Z,17.62
2023-04-30T14:32:18.685Z,17.41
2023-04-30T14:35:29.495Z,17.85
2023-04-30T14:38:38.627Z,17.61
2023-04-30T14:41:47.361Z,17.98
2023-04-30T14:44:55.994Z,17.92
2023-04-30T14:48:05.660Z,17.97
2023-04-30T14:51:15.908Z,17.82
2023-04-30T14:54:24.440Z,17.75
2023-04-30T14:57:34.404Z,17.49
2023-04-30T15:00:43.118Z,17.07
2023-04-30T15:03:52.007Z,16.97
2023-04-30T15:07:02.675Z,16.92
2023-04-30T15:10:12.278Z,17.07
2023-04-30T15:13:21.057Z,16.95
2023-04-30T15:16:30.382Z,16.71
2023-04-30T15:19:39.508Z,17.01
2023-04-30T15:22:50.743Z,16.96
2023-04-30T15:25:59.409Z,17.33
2023-04-30T15:29:08.875Z,17.08
2023-04-30T15:32:17.983Z,16.71
2023-04-30T15:35:27.646Z,16.77
2023-04-30T15:38:37.654Z,16.71
2023-04-30T15:41:46.173Z,16.59
2023-04-30T15:44:55.556Z,16.84
2023-04-30T15:48:05.008Z,16.69
2023-04-30T15:51:13.618Z,16.53
2023-04-30T15:54:24.328Z,16.64
2023-04-30T15:57:32.997Z,16.32
2023-04-30T16:00:41.961Z,16.31
2023-04-30T16:03:51.092Z,16.09
2023-04-30T16:07:01.130Z,15.88
2023-04-30T16:10:12.382Z,15.75
2023-04-30T16:13:21.197Z,15.80
2023-04-30T16:16:30.273Z,15.79
2023-04-30T16:19:39.097Z,15.87
2023-04-30T16:22:48.184Z,16.09
2023-04-30T16:25:58.406Z,15.82
2023-04-30T16:29:06.913Z,15.79
2023-04-30T16:32:15.903Z,15.65
2023-04-30T16:35:24.608Z,15.59
2023-04-30T16:38:33.111Z,15.56
2023-04-30T16:41:43.158Z,15.64
2023-04-30T16:44:51.693Z,15.69
2023-04-30T16:48:00.480Z,15.64
2023-04-30T16:51:09.557Z,15.39
2023-04-30T16:54:18.196Z,15.20
2023-04-30T16:57:28.684Z,15.15
2023-04-30T17:00:37.647Z,15.14
2023-04-30T17:03:46.637Z,15.05
2023-04-30T17:06:55.855Z,15.02
2023-04-30T17:10:05.003Z,14.91
2023-04-30T17:13:15.269Z,14.84
2023-04-30T17:16:23.998Z,14.79
2023-04-30T17:19:33.162Z,14.68
2023-04-30T17:22:41.851Z,14.61
2023-04-30T17:25:50.514Z,14.59
2023-04-30T17:29:01.964Z,14.53
2023-04-30T17:32:11.278Z,14.46
2023-04-30T17:35:19.994Z,14.35
2023-04-30T17:38:28.857Z,14.20
2023-04-30T17:41:37.384Z,14.12
2023-04-30T17:44:48.747Z,13.98
2023-04-30T17:47:57.333Z,13.88
2023-04-30T17:51:06.034Z,13.81
2023-04-30T17:54:14.781Z,13.74
2023-04-30T17:57:23.789Z,13.51
2023-04-30T18:00:35.340Z,13.46
2023-04-30T18:03:44.774Z,13.32
2023-04-30T18:06:53.879Z,13.20
2023-04-30T18:10:02.759Z,13.12
2023-04-30T18:13:11.337Z,13.02
2023-04-30T18:16:21.453Z,12.81
2023-04-30T18:19:30.162Z,12.77
2023-04-30T18:22:43.358Z,12.66
2023-04-30T18:25:52.758Z,12.44
2023-04-30T18:29:03.498Z,12.46
2023-04-30T18:32:14.057Z,12.40
2023-04-30T18:35:23.423Z,12.29
2023-04-30T18:38:32.523Z,12.33
2023-04-30T18:41:41.595Z,12.26
2023-04-30T18:44:50.050Z,12.21
2023-04-30T18:48:00.496Z,12.12
2023-04-30T18:51:09.187Z,12.02
2023-04-30T18:54:17.692Z,11.89
2023-04-30T18:57:26.352Z,11.80
2023-04-30T19:00:34.926Z,11.68
2023-04-30T19:03:45.238Z,11.64
2023-04-30T19:06:55.619Z,11.50
2023-04-30T19:10:05.609Z,11.50
2023-04-30T19:13:14.419Z,11.47
2023-04-30T19:16:23.136Z,11.42
2023-04-30T19:19:33.568Z,11.37
2023-04-30T19:22:42.669Z,11.28
2023-04-30T19:25:52.156Z,11.12
2023-04-30T19:29:00.789Z,11.08
2023-04-30T19:32:09.857Z,11.02
2023-04-30T19:35:21.401Z,10.97
2023-04-30T19:38:30.164Z,10.93
2023-04-30T19:41:39.040Z,10.95
2023-04-30T19:44:47.737Z,10.89
2023-04-30T19:47:56.541Z,10.79
2023-04-30T19:51:07.130Z,10.68
2023-04-30T19:54:15.911Z,10.55
2023-04-30T19:57:24.687Z,10.53
2023-04-30T20:00:33.506Z,10.47
2023-04-30T20:03:43.467Z,10.45
2023-04-30T20:06:56.946Z,10.43
2023-04-30T20:10:06.619Z,10.39
2023-04-30T20:13:15.906Z,10.24
2023-04-30T20:16:24.726Z,10.21
2023-04-30T20:19:33.914Z,10.13
2023-04-30T20:22:43.856Z,10.20
2023-04-30T20:25:55.145Z,10.29
2023-04-30T20:29:03.719Z,10.40
2023-04-30T20:32:12.216Z,10.37
2023-04-30T20:35:21.462Z,10.26
2023-04-30T20:38:31.503Z,10.19
2023-04-30T20:41:40.145Z,10.04
2023-04-30T20:44:48.721Z,10.04
2023-04-30T20:47:57.716Z,10.06
2023-04-30T20:51:06.296Z,10.06
2023-04-30T20:54:16.385Z,10.07
2023-04-30T20:57:25.374Z,9.99
2023-04-30T21:00:33.906Z,9.87
2023-04-30T21:03:42.747Z,9.87
2023-04-30T21:06:51.655Z,9.89
2023-04-30T21:10:02.259Z,9.80
2023-04-30T21:13:12.866Z,9.78
2023-04-30T21:16:21.823Z,9.62
2023-04-30T21:19:31.554Z,9.49
2023-04-30T21:22:41.088Z,9.56
2023-04-30T21:25:54.725Z,9.55
2023-04-30T21:29:03.698Z,9.43
2023-04-30T21:32:12.319Z,9.30
2023-04-30T21:35:21.096Z,9.27
2023-04-30T21:38:29.791Z,9.19
2023-04-30T21:41:39.685Z,9.13
2023-04-30T21:44:48.495Z,9.19
2023-04-30T21:47:57.236Z,9.12
2023-04-30T21:51:12.770Z,9.10
2023-04-30T21:54:21.404Z,8.97
2023-04-30T21:57:31.440Z,9.19
2023-04-30T22:00:39.960Z,9.12
2023-04-30T22:03:48.789Z,9.04
2023-04-30T22:06:57.662Z,9.17
2023-04-30T22:10:07.676Z,9.09
2023-04-30T22:13:17.887Z,9.02
2023-04-30T22:16:26.839Z,9.00
2023-04-30T22:19:35.391Z,9.04
2023-04-30T22:22:44.123Z,9.09
2023-04-30T22:25:53.363Z,8.97
2023-04-30T22:29:03.429Z,8.82
2023-04-30T22:32:13.144Z,8.76
2023-04-30T22:35:22.953Z,8.71
2023-04-30T22:38:31.841Z,8.72
2023-04-30T22:41:40.379Z,8.58
2023-04-30T22:44:50.311Z,8.56
2023-04-30T22:48:01.814Z,8.51
2023-04-30T22:51:11.039Z,8.44
2023-04-30T22:54:20.178Z,8.43
2023-04-30T22:57:28.741Z,8.39
2023-04-30T23:00:39.255Z,8.45
2023-04-30T23:03:47.898Z,8.57
2023-04-30T23:06:57.343Z,8.48
2023-04-30T23:10:06.553Z,8.62
2023-04-30T23:13:15.608Z,8.49
2023-04-30T23:16:25.835Z,8.41
2023-04-30T23:19:34.522Z,8.29
2023-04-30T23:22:43.553Z,8.26
2023-04-30T23:25:52.461Z,8.17
2023-04-30T23:29:02.749Z,8.17
2023-04-30T23:32:13.413Z,8.18
2023-04-30T23:35:22.157Z,7.99
2023-04-30T23:38:31.442Z,7.92
2023-04-30T23:41:40.370Z,7.90
2023-04-30T23:44:49.205Z,7.95
2023-04-30T23:47:59.656Z,7.92
2023-04-30T23:51:09.193Z,7.91
2023-04-30T23:54:17.840Z,7.82
2023-04-30T23:57:28.050Z,7.89
